sensor_id;sensor_type;location;lat;lon;timestamp;pressure;altitude;pressure_sealevel;temperature;humidity
74881;BME280;63427;49.654;6.596;2023-09-12T00:00:50;99227.09;;;23.83;42.33
74881;BME280;63427;49.654;6.596;2023-09-12T00:03:20;99224.01;;;23.81;43.16
74881;BME280;63427;49.654;6.596;2023-09-12T00:05:40;99233.62;;;24.01;42.57
74881;BME280;63427;49.654;6.596;2023-09-12T00:08:06;99234.12;;;23.86;41.89
74881;BME280;63427;49.654;6.596;2023-09-12T00:10:31;99231.56;;;23.83;42.23
74881;BME280;63427;49.654;6.596;2023-09-12T00:12:56;99233.61;;;23.75;42.20
74881;BME280;63427;49.654;6.596;2023-09-12T00:15:22;99233.96;;;23.66;42.18
74881;BME280;63427;49.654;6.596;2023-09-12T00:17:47;99233.42;;;23.56;42.17
74881;BME280;63427;49.654;6.596;2023-09-12T00:20:12;99225.38;;;23.49;42.54
74881;BME280;63427;49.654;6.596;2023-09-12T00:22:37;99224.29;;;23.56;42.54
74881;BME280;63427;49.654;6.596;2023-09-12T00:25:03;99221.91;;;23.39;42.80
74881;BME280;63427;49.654;6.596;2023-09-12T00:27:29;99219.80;;;23.60;42.84
74881;BME280;63427;49.654;6.596;2023-09-12T00:29:55;99223.55;;;23.50;43.19
74881;BME280;63427;49.654;6.596;2023-09-12T00:32:20;99218.95;;;23.36;42.69
74881;BME280;63427;49.654;6.596;2023-09-12T00:34:45;99219.81;;;23.52;43.31
74881;BME280;63427;49.654;6.596;2023-09-12T00:37:11;99216.85;;;23.51;43.20
74881;BME280;63427;49.654;6.596;2023-09-12T00:39:36;99212.48;;;23.70;43.62
74881;BME280;63427;49.654;6.596;2023-09-12T00:42:03;99207.61;;;23.51;43.63
74881;BME280;63427;49.654;6.596;2023-09-12T00:44:27;99211.02;;;23.87;42.52
74881;BME280;63427;49.654;6.596;2023-09-12T00:46:54;99216.87;;;23.20;42.51
74881;BME280;63427;49.654;6.596;2023-09-12T00:49:18;99221.22;;;23.49;42.21
74881;BME280;63427;49.654;6.596;2023-09-12T00:51:44;99221.78;;;23.44;42.88
74881;BME280;63427;49.654;6.596;2023-09-12T00:54:09;99224.66;;;23.32;43.21
74881;BME280;63427;49.654;6.596;2023-09-12T00:56:35;99224.29;;;23.19;42.50
74881;BME280;63427;49.654;6.596;2023-09-12T00:59:01;99221.28;;;23.31;43.49
74881;BME280;63427;49.654;6.596;2023-09-12T01:01:25;99214.19;;;23.24;42.83
74881;BME280;63427;49.654;6.596;2023-09-12T01:03:51;99216.12;;;23.04;43.50
74881;BME280;63427;49.654;6.596;2023-09-12T01:06:18;99209.30;;;23.04;43.23
74881;BME280;63427;49.654;6.596;2023-09-12T01:08:42;99206.85;;;22.97;43.17
74881;BME280;63427;49.654;6.596;2023-09-12T01:11:08;99211.09;;;22.92;42.85
74881;BME280;63427;49.654;6.596;2023-09-12T01:13:33;99212.55;;;22.94;42.43
74881;BME280;63427;49.654;6.596;2023-09-12T01:15:58;99211.46;;;22.82;42.93
74881;BME280;63427;49.654;6.596;2023-09-12T01:18:24;99213.95;;;22.69;43.59
74881;BME280;63427;49.654;6.596;2023-09-12T01:21:02;99215.08;;;22.63;43.64
74881;BME280;63427;49.654;6.596;2023-09-12T01:23:24;99213.94;;;22.54;43.75
74881;BME280;63427;49.654;6.596;2023-09-12T01:26:00;99211.81;;;22.66;43.80
74881;BME280;63427;49.654;6.596;2023-09-12T01:28:08;99209.77;;;22.43;42.95
74881;BME280;63427;49.654;6.596;2023-09-12T01:30:31;99206.40;;;22.60;43.50
74881;BME280;63427;49.654;6.596;2023-09-12T01:32:56;99203.38;;;22.67;43.07
74881;BME280;63427;49.654;6.596;2023-09-12T01:35:22;99201.86;;;22.52;43.69
74881;BME280;63427;49.654;6.596;2023-09-12T01:37:47;99201.74;;;22.65;43.34
74881;BME280;63427;49.654;6.596;2023-09-12T01:40:12;99197.44;;;22.41;43.17
74881;BME280;63427;49.654;6.596;2023-09-12T01:42:41;99198.60;;;22.28;44.11
74881;BME280;63427;49.654;6.596;2023-09-12T01:45:04;99195.18;;;22.54;44.06
74881;BME280;63427;49.654;6.596;2023-09-12T01:47:29;99198.96;;;22.48;43.53
74881;BME280;63427;49.654;6.596;2023-09-12T01:49:57;99208.46;;;22.51;43.40
74881;BME280;63427;49.654;6.596;2023-09-12T01:52:20;99213.88;;;22.44;43.42
74881;BME280;63427;49.654;6.596;2023-09-12T01:54:47;99217.59;;;22.40;43.74
74881;BME280;63427;49.654;6.596;2023-09-12T01:57:12;99211.36;;;22.31;44.09
74881;BME280;63427;49.654;6.596;2023-09-12T01:59:37;99208.03;;;22.26;44.11
74881;BME280;63427;49.654;6.596;2023-09-12T02:02:03;99199.39;;;22.10;43.65
74881;BME280;63427;49.654;6.596;2023-09-12T02:04:29;99207.47;;;22.06;44.23
74881;BME280;63427;49.654;6.596;2023-09-12T02:06:54;99210.08;;;21.98;44.14
74881;BME280;63427;49.654;6.596;2023-09-12T02:09:19;99208.88;;;22.07;43.94
74881;BME280;63427;49.654;6.596;2023-09-12T02:11:45;99212.93;;;21.98;44.42
74881;BME280;63427;49.654;6.596;2023-09-12T02:14:10;99209.01;;;21.90;44.86
74881;BME280;63427;49.654;6.596;2023-09-12T02:16:36;99208.36;;;21.90;44.88
74881;BME280;63427;49.654;6.596;2023-09-12T02:19:01;99208.31;;;21.82;44.58
74881;BME280;63427;49.654;6.596;2023-09-12T02:21:27;99203.95;;;21.81;44.26
74881;BME280;63427;49.654;6.596;2023-09-12T02:23:53;99207.05;;;21.69;44.35
74881;BME280;63427;49.654;6.596;2023-09-12T02:26:18;99201.61;;;21.62;44.81
74881;BME280;63427;49.654;6.596;2023-09-12T02:28:45;99202.51;;;21.83;44.74
74881;BME280;63427;49.654;6.596;2023-09-12T02:31:10;99204.44;;;21.63;44.19
74881;BME280;63427;49.654;6.596;2023-09-12T02:33:34;99203.93;;;21.81;44.02
74881;BME280;63427;49.654;6.596;2023-09-12T02:36:00;99207.75;;;22.02;44.57
74881;BME280;63427;49.654;6.596;2023-09-12T02:38:26;99208.65;;;21.39;45.03
74881;BME280;63427;49.654;6.596;2023-09-12T02:40:51;99207.95;;;21.36;45.08
74881;BME280;63427;49.654;6.596;2023-09-12T02:43:16;99209.84;;;21.37;44.77
74881;BME280;63427;49.654;6.596;2023-09-12T02:45:42;99212.84;;;21.34;45.42
74881;BME280;63427;49.654;6.596;2023-09-12T02:48:07;99211.99;;;21.34;44.78
74881;BME280;63427;49.654;6.596;2023-09-12T02:50:33;99205.77;;;21.31;45.49
74881;BME280;63427;49.654;6.596;2023-09-12T02:52:58;99193.93;;;21.79;44.49
74881;BME280;63427;49.654;6.596;2023-09-12T02:55:24;99193.41;;;21.33;45.18
74881;BME280;63427;49.654;6.596;2023-09-12T02:57:49;99202.99;;;21.41;44.93
74881;BME280;63427;49.654;6.596;2023-09-12T03:00:14;99208.38;;;21.39;44.07
74881;BME280;63427;49.654;6.596;2023-09-12T03:02:40;99208.24;;;21.34;44.74
74881;BME280;63427;49.654;6.596;2023-09-12T03:05:05;99206.31;;;21.29;45.58
74881;BME280;63427;49.654;6.596;2023-09-12T03:07:31;99207.06;;;21.30;45.83
74881;BME280;63427;49.654;6.596;2023-09-12T03:09:56;99205.34;;;21.27;45.97
74881;BME280;63427;49.654;6.596;2023-09-12T03:12:22;99206.41;;;21.27;45.89
74881;BME280;63427;49.654;6.596;2023-09-12T03:14:48;99209.33;;;21.47;45.42
74881;BME280;63427;49.654;6.596;2023-09-12T03:17:14;99209.86;;;21.44;44.45
74881;BME280;63427;49.654;6.596;2023-09-12T03:19:39;99213.89;;;21.41;44.79
74881;BME280;63427;49.654;6.596;2023-09-12T03:22:05;99217.20;;;21.43;44.93
74881;BME280;63427;49.654;6.596;2023-09-12T03:24:31;99215.84;;;21.41;45.44
74881;BME280;63427;49.654;6.596;2023-09-12T03:26:56;99210.42;;;21.42;45.84
74881;BME280;63427;49.654;6.596;2023-09-12T03:29:22;99207.30;;;21.50;45.30
74881;BME280;63427;49.654;6.596;2023-09-12T03:31:47;99196.17;;;21.49;45.76
74881;BME280;63427;49.654;6.596;2023-09-12T03:34:13;99178.37;;;21.65;45.87
74881;BME280;63427;49.654;6.596;2023-09-12T03:36:38;99164.29;;;21.53;46.03
74881;BME280;63427;49.654;6.596;2023-09-12T03:39:04;99160.56;;;21.61;45.36
74881;BME280;63427;49.654;6.596;2023-09-12T03:41:30;99161.95;;;21.60;44.91
74881;BME280;63427;49.654;6.596;2023-09-12T03:43:56;99168.08;;;21.72;45.66
74881;BME280;63427;49.654;6.596;2023-09-12T03:46:22;99174.55;;;21.62;44.91
74881;BME280;63427;49.654;6.596;2023-09-12T03:48:47;99173.64;;;21.49;44.39
74881;BME280;63427;49.654;6.596;2023-09-12T03:51:12;99173.62;;;21.58;44.93
74881;BME280;63427;49.654;6.596;2023-09-12T03:53:38;99174.48;;;21.55;45.19
74881;BME280;63427;49.654;6.596;2023-09-12T03:56:04;99183.83;;;21.67;44.17
74881;BME280;63427;49.654;6.596;2023-09-12T03:58:29;99185.09;;;21.60;44.94
74881;BME280;63427;49.654;6.596;2023-09-12T04:01:00;99184.81;;;21.56;45.27
74881;BME280;63427;49.654;6.596;2023-09-12T04:03:20;99181.08;;;22.08;44.45
74881;BME280;63427;49.654;6.596;2023-09-12T04:05:46;99177.32;;;21.69;44.62
74881;BME280;63427;49.654;6.596;2023-09-12T04:08:12;99168.34;;;21.58;44.42
74881;BME280;63427;49.654;6.596;2023-09-12T04:10:37;99170.02;;;21.51;44.32
74881;BME280;63427;49.654;6.596;2023-09-12T04:13:03;99177.97;;;21.94;45.11
74881;BME280;63427;49.654;6.596;2023-09-12T04:15:28;99188.57;;;21.66;44.49
74881;BME280;63427;49.654;6.596;2023-09-12T04:17:54;99186.67;;;21.66;45.56
74881;BME280;63427;49.654;6.596;2023-09-12T04:20:20;99191.69;;;21.58;45.54
74881;BME280;63427;49.654;6.596;2023-09-12T04:22:44;99190.48;;;21.30;44.89
74881;BME280;63427;49.654;6.596;2023-09-12T04:25:11;99192.99;;;21.47;45.37
74881;BME280;63427;49.654;6.596;2023-09-12T04:27:35;99197.39;;;21.20;44.55
74881;BME280;63427;49.654;6.596;2023-09-12T04:30:01;99195.32;;;21.45;44.59
74881;BME280;63427;49.654;6.596;2023-09-12T04:32:27;99194.75;;;21.22;44.44
74881;BME280;63427;49.654;6.596;2023-09-12T04:34:52;99193.11;;;21.09;44.69
74881;BME280;63427;49.654;6.596;2023-09-12T04:37:18;99194.31;;;21.60;44.24
74881;BME280;63427;49.654;6.596;2023-09-12T04:39:43;99198.22;;;21.21;45.21
74881;BME280;63427;49.654;6.596;2023-09-12T04:42:08;99200.51;;;21.26;44.47
74881;BME280;63427;49.654;6.596;2023-09-12T04:44:35;99204.35;;;21.06;44.04
74881;BME280;63427;49.654;6.596;2023-09-12T04:47:00;99206.90;;;21.19;44.99
74881;BME280;63427;49.654;6.596;2023-09-12T04:49:26;99207.56;;;21.13;44.92
74881;BME280;63427;49.654;6.596;2023-09-12T04:51:51;99208.72;;;21.15;44.18
74881;BME280;63427;49.654;6.596;2023-09-12T04:54:16;99210.97;;;20.85;44.46
74881;BME280;63427;49.654;6.596;2023-09-12T04:56:41;99210.30;;;20.48;45.65
74881;BME280;63427;49.654;6.596;2023-09-12T04:59:07;99212.27;;;20.71;45.89
74881;BME280;63427;49.654;6.596;2023-09-12T05:01:33;99213.35;;;20.99;45.03
74881;BME280;63427;49.654;6.596;2023-09-12T05:03:59;99214.08;;;21.04;45.27
74881;BME280;63427;49.654;6.596;2023-09-12T05:06:24;99219.88;;;20.83;44.77
74881;BME280;63427;49.654;6.596;2023-09-12T05:08:50;99225.93;;;20.83;45.46
74881;BME280;63427;49.654;6.596;2023-09-12T05:11:16;99227.21;;;20.71;45.06
74881;BME280;63427;49.654;6.596;2023-09-12T05:13:42;99232.04;;;20.62;45.61
74881;BME280;63427;49.654;6.596;2023-09-12T05:16:07;99230.85;;;21.13;44.64
74881;BME280;63427;49.654;6.596;2023-09-12T05:18:33;99237.08;;;20.43;45.07
74881;BME280;63427;49.654;6.596;2023-09-12T05:20:59;99242.26;;;20.50;45.51
74881;BME280;63427;49.654;6.596;2023-09-12T05:23:25;99239.83;;;20.73;45.00
74881;BME280;63427;49.654;6.596;2023-09-12T05:25:51;99245.39;;;20.61;44.70
74881;BME280;63427;49.654;6.596;2023-09-12T05:28:17;99239.67;;;20.66;45.80
74881;BME280;63427;49.654;6.596;2023-09-12T05:30:41;99238.26;;;20.52;46.20
74881;BME280;63427;49.654;6.596;2023-09-12T05:33:06;99235.09;;;20.76;45.71
74881;BME280;63427;49.654;6.596;2023-09-12T05:35:32;99233.55;;;20.37;46.19
74881;BME280;63427;49.654;6.596;2023-09-12T05:38:03;99232.74;;;20.71;46.04
74881;BME280;63427;49.654;6.596;2023-09-12T05:40:22;99231.88;;;20.67;45.62
74881;BME280;63427;49.654;6.596;2023-09-12T05:42:48;99237.16;;;20.68;47.00
74881;BME280;63427;49.654;6.596;2023-09-12T05:45:14;99239.23;;;20.70;46.16
74881;BME280;63427;49.654;6.596;2023-09-12T05:48:14;99235.85;;;20.41;46.79
74881;BME280;63427;49.654;6.596;2023-09-12T05:50:06;99238.54;;;20.43;46.28
74881;BME280;63427;49.654;6.596;2023-09-12T05:52:30;99240.93;;;20.42;46.08
74881;BME280;63427;49.654;6.596;2023-09-12T05:54:56;99241.05;;;20.78;46.02
74881;BME280;63427;49.654;6.596;2023-09-12T05:57:21;99241.68;;;20.44;46.21
74881;BME280;63427;49.654;6.596;2023-09-12T05:59:47;99240.01;;;20.47;46.08
74881;BME280;63427;49.654;6.596;2023-09-12T06:02:12;99243.16;;;20.41;46.89
74881;BME280;63427;49.654;6.596;2023-09-12T06:04:38;99247.79;;;20.68;46.76
74881;BME280;63427;49.654;6.596;2023-09-12T06:07:04;99249.56;;;20.56;46.39
74881;BME280;63427;49.654;6.596;2023-09-12T06:09:29;99253.00;;;20.51;46.80
74881;BME280;63427;49.654;6.596;2023-09-12T06:11:54;99259.50;;;20.57;46.98
74881;BME280;63427;49.654;6.596;2023-09-12T06:14:19;99262.82;;;20.84;45.69
74881;BME280;63427;49.654;6.596;2023-09-12T06:16:51;99270.36;;;20.68;44.98
74881;BME280;63427;49.654;6.596;2023-09-12T06:19:11;99274.93;;;20.97;46.98
74881;BME280;63427;49.654;6.596;2023-09-12T06:21:37;99272.79;;;21.11;46.85
74881;BME280;63427;49.654;6.596;2023-09-12T06:24:10;99274.77;;;20.91;47.08
74881;BME280;63427;49.654;6.596;2023-09-12T06:26:28;99276.95;;;20.84;46.86
74881;BME280;63427;49.654;6.596;2023-09-12T06:28:54;99280.19;;;21.13;46.93
74881;BME280;63427;49.654;6.596;2023-09-12T06:31:19;99282.35;;;21.56;46.69
74881;BME280;63427;49.654;6.596;2023-09-12T06:33:45;99282.11;;;21.39;46.87
74881;BME280;63427;49.654;6.596;2023-09-12T06:36:10;99283.55;;;21.25;46.50
74881;BME280;63427;49.654;6.596;2023-09-12T06:38:36;99286.55;;;21.47;45.38
74881;BME280;63427;49.654;6.596;2023-09-12T06:41:02;99283.29;;;21.53;46.74
74881;BME280;63427;49.654;6.596;2023-09-12T06:43:27;99281.07;;;21.70;46.14
74881;BME280;63427;49.654;6.596;2023-09-12T06:45:52;99284.24;;;21.87;46.14
74881;BME280;63427;49.654;6.596;2023-09-12T06:48:18;99286.94;;;22.02;46.32
74881;BME280;63427;49.654;6.596;2023-09-12T06:50:43;99291.93;;;22.11;46.54
74881;BME280;63427;49.654;6.596;2023-09-12T06:53:08;99293.03;;;22.27;46.20
74881;BME280;63427;49.654;6.596;2023-09-12T06:55:34;99290.57;;;22.23;45.90
74881;BME280;63427;49.654;6.596;2023-09-12T06:58:16;99289.89;;;22.45;45.81
74881;BME280;63427;49.654;6.596;2023-09-12T07:00:25;99291.77;;;22.94;45.82
74881;BME280;63427;49.654;6.596;2023-09-12T07:02:51;99291.48;;;23.06;45.62
74881;BME280;63427;49.654;6.596;2023-09-12T07:05:16;99286.77;;;23.05;45.62
74881;BME280;63427;49.654;6.596;2023-09-12T07:07:51;99275.60;;;23.09;45.05
74881;BME280;63427;49.654;6.596;2023-09-12T07:10:07;99276.75;;;23.15;45.05
74881;BME280;63427;49.654;6.596;2023-09-12T07:12:32;99275.87;;;23.28;45.59
74881;BME280;63427;49.654;6.596;2023-09-12T07:14:58;99277.02;;;23.78;45.02
74881;BME280;63427;49.654;6.596;2023-09-12T07:17:24;99276.99;;;23.64;44.94
74881;BME280;63427;49.654;6.596;2023-09-12T07:19:56;99275.88;;;23.51;44.90
74881;BME280;63427;49.654;6.596;2023-09-12T07:22:15;99281.12;;;23.62;44.79
74881;BME280;63427;49.654;6.596;2023-09-12T07:24:40;99281.06;;;23.44;45.28
74881;BME280;63427;49.654;6.596;2023-09-12T07:27:05;99280.68;;;23.85;45.69
74881;BME280;63427;49.654;6.596;2023-09-12T07:29:31;99280.36;;;24.01;44.76
74881;BME280;63427;49.654;6.596;2023-09-12T07:31:56;99282.72;;;23.76;44.41
74881;BME280;63427;49.654;6.596;2023-09-12T07:34:23;99286.97;;;23.79;43.71
74881;BME280;63427;49.654;6.596;2023-09-12T07:36:48;99286.35;;;24.15;43.83
74881;BME280;63427;49.654;6.596;2023-09-12T07:39:27;99285.99;;;24.30;44.69
74881;BME280;63427;49.654;6.596;2023-09-12T07:41:39;99289.80;;;24.41;43.70
74881;BME280;63427;49.654;6.596;2023-09-12T07:44:04;99291.20;;;24.65;43.48
74881;BME280;63427;49.654;6.596;2023-09-12T07:46:30;99291.06;;;24.60;43.54
74881;BME280;63427;49.654;6.596;2023-09-12T07:48:55;99292.82;;;24.88;42.63
74881;BME280;63427;49.654;6.596;2023-09-12T07:51:21;99288.75;;;25.06;42.68
74881;BME280;63427;49.654;6.596;2023-09-12T07:53:46;99291.23;;;25.21;41.52
74881;BME280;63427;49.654;6.596;2023-09-12T07:56:11;99290.37;;;25.35;40.90
74881;BME280;63427;49.654;6.596;2023-09-12T07:58:37;99294.60;;;25.42;41.93
74881;BME280;63427;49.654;6.596;2023-09-12T08:01:08;99296.83;;;25.67;40.99
74881;BME280;63427;49.654;6.596;2023-09-12T08:03:28;99297.54;;;25.72;41.27
74881;BME280;63427;49.654;6.596;2023-09-12T08:05:55;99297.79;;;26.19;39.69
74881;BME280;63427;49.654;6.596;2023-09-12T08:08:19;99299.32;;;26.01;39.24
74881;BME280;63427;49.654;6.596;2023-09-12T08:10:50;99297.66;;;26.35;39.03
74881;BME280;63427;49.654;6.596;2023-09-12T08:13:10;99302.91;;;26.81;38.49
74881;BME280;63427;49.654;6.596;2023-09-12T08:15:35;99301.26;;;27.05;37.73
74881;BME280;63427;49.654;6.596;2023-09-12T08:18:01;99297.24;;;27.03;37.72
74881;BME280;63427;49.654;6.596;2023-09-12T08:20:31;99299.99;;;27.31;37.55
74881;BME280;63427;49.654;6.596;2023-09-12T08:22:52;99303.80;;;27.54;36.48
74881;BME280;63427;49.654;6.596;2023-09-12T08:25:17;99302.89;;;27.69;36.81
74881;BME280;63427;49.654;6.596;2023-09-12T08:27:42;99298.16;;;27.88;35.41
74881;BME280;63427;49.654;6.596;2023-09-12T08:30:25;99298.87;;;28.03;36.64
74881;BME280;63427;49.654;6.596;2023-09-12T08:32:33;99301.93;;;28.45;35.47
74881;BME280;63427;49.654;6.596;2023-09-12T08:34:58;99301.30;;;28.71;34.85
74881;BME280;63427;49.654;6.596;2023-09-12T08:37:25;99301.73;;;29.04;34.69
74881;BME280;63427;49.654;6.596;2023-09-12T08:39:50;99301.05;;;28.95;34.06
74881;BME280;63427;49.654;6.596;2023-09-12T08:42:16;99302.70;;;29.45;32.99
74881;BME280;63427;49.654;6.596;2023-09-12T08:44:42;99304.35;;;29.54;33.55
74881;BME280;63427;49.654;6.596;2023-09-12T08:47:08;99305.96;;;30.00;32.54
74881;BME280;63427;49.654;6.596;2023-09-12T08:49:34;99305.51;;;30.19;31.60
74881;BME280;63427;49.654;6.596;2023-09-12T08:51:57;99303.22;;;30.38;31.44
74881;BME280;63427;49.654;6.596;2023-09-12T08:54:22;99302.94;;;30.45;30.28
74881;BME280;63427;49.654;6.596;2023-09-12T08:56:48;99306.71;;;31.03;30.42
74881;BME280;63427;49.654;6.596;2023-09-12T08:59:14;99302.68;;;30.84;30.20
74881;BME280;63427;49.654;6.596;2023-09-12T09:01:39;99302.09;;;31.25;29.55
74881;BME280;63427;49.654;6.596;2023-09-12T09:04:05;99302.50;;;31.66;29.69
74881;BME280;63427;49.654;6.596;2023-09-12T09:06:31;99301.26;;;32.15;28.12
74881;BME280;63427;49.654;6.596;2023-09-12T09:08:55;99295.87;;;32.12;29.02
74881;BME280;63427;49.654;6.596;2023-09-12T09:11:19;99299.05;;;32.38;28.31
74881;BME280;63427;49.654;6.596;2023-09-12T09:13:45;99299.94;;;32.61;27.89
74881;BME280;63427;49.654;6.596;2023-09-12T09:16:12;99296.81;;;32.24;27.41
74881;BME280;63427;49.654;6.596;2023-09-12T09:18:50;99297.03;;;32.12;27.77
74881;BME280;63427;49.654;6.596;2023-09-12T09:21:17;99300.39;;;32.25;27.49
74881;BME280;63427;49.654;6.596;2023-09-12T09:23:27;99302.65;;;32.11;27.44
74881;BME280;63427;49.654;6.596;2023-09-12T09:25:53;99303.68;;;32.49;27.24
74881;BME280;63427;49.654;6.596;2023-09-12T09:28:20;99303.63;;;32.59;27.09
74881;BME280;63427;49.654;6.596;2023-09-12T09:30:45;99300.19;;;32.50;27.27
74881;BME280;63427;49.654;6.596;2023-09-12T09:33:10;99296.82;;;32.30;26.91
74881;BME280;63427;49.654;6.596;2023-09-12T09:35:35;99295.13;;;32.51;26.36
74881;BME280;63427;49.654;6.596;2023-09-12T09:38:01;99295.91;;;32.36;26.99
74881;BME280;63427;49.654;6.596;2023-09-12T09:40:27;99299.20;;;32.31;27.20
74881;BME280;63427;49.654;6.596;2023-09-12T09:42:53;99299.08;;;32.25;27.45
74881;BME280;63427;49.654;6.596;2023-09-12T09:45:17;99299.39;;;32.19;27.21
74881;BME280;63427;49.654;6.596;2023-09-12T09:47:43;99298.80;;;32.04;27.03
74881;BME280;63427;49.654;6.596;2023-09-12T09:50:14;99297.44;;;31.81;27.60
74881;BME280;63427;49.654;6.596;2023-09-12T09:52:34;99291.37;;;31.99;28.16
74881;BME280;63427;49.654;6.596;2023-09-12T09:55:00;99283.35;;;31.85;28.39
74881;BME280;63427;49.654;6.596;2023-09-12T09:57:26;99273.60;;;31.82;29.38
74881;BME280;63427;49.654;6.596;2023-09-12T09:59:50;99289.25;;;31.66;29.94
74881;BME280;63427;49.654;6.596;2023-09-12T10:02:18;99298.98;;;31.69;30.39
74881;BME280;63427;49.654;6.596;2023-09-12T10:04:44;99298.88;;;31.57;31.76
74881;BME280;63427;49.654;6.596;2023-09-12T10:07:06;99296.29;;;31.51;31.95
74881;BME280;63427;49.654;6.596;2023-09-12T10:09:32;99296.41;;;31.57;32.26
74881;BME280;63427;49.654;6.596;2023-09-12T10:11:58;99302.27;;;31.23;32.05
74881;BME280;63427;49.654;6.596;2023-09-12T10:14:22;99309.50;;;31.32;32.05
74881;BME280;63427;49.654;6.596;2023-09-12T10:16:48;99309.80;;;31.15;33.06
74881;BME280;63427;49.654;6.596;2023-09-12T10:19:16;99310.79;;;30.77;33.91
74881;BME280;63427;49.654;6.596;2023-09-12T10:21:46;99317.54;;;31.13;33.75
74881;BME280;63427;49.654;6.596;2023-09-12T10:24:05;99316.55;;;30.99;34.25
74881;BME280;63427;49.654;6.596;2023-09-12T10:26:31;99317.79;;;30.65;34.30
74881;BME280;63427;49.654;6.596;2023-09-12T10:28:55;99315.40;;;30.87;34.36
74881;BME280;63427;49.654;6.596;2023-09-12T10:31:20;99310.85;;;30.92;34.15
74881;BME280;63427;49.654;6.596;2023-09-12T10:33:46;99306.57;;;31.30;32.46
74881;BME280;63427;49.654;6.596;2023-09-12T10:36:11;99301.59;;;30.84;32.34
74881;BME280;63427;49.654;6.596;2023-09-12T10:38:41;99298.84;;;31.71;31.74
74881;BME280;63427;49.654;6.596;2023-09-12T10:41:02;99302.44;;;32.20;31.26
74881;BME280;63427;49.654;6.596;2023-09-12T10:43:40;99303.26;;;32.06;27.87
74881;BME280;63427;49.654;6.596;2023-09-12T10:45:52;99298.71;;;32.34;29.20
74881;BME280;63427;49.654;6.596;2023-09-12T10:48:17;99293.25;;;32.60;26.79
74881;BME280;63427;49.654;6.596;2023-09-12T10:50:44;99293.04;;;32.87;27.33
74881;BME280;63427;49.654;6.596;2023-09-12T10:53:10;99298.24;;;32.82;27.69
74881;BME280;63427;49.654;6.596;2023-09-12T10:55:33;99300.88;;;33.51;28.25
74881;BME280;63427;49.654;6.596;2023-09-12T10:58:03;99293.33;;;33.63;25.59
74881;BME280;63427;49.654;6.596;2023-09-12T11:00:24;99292.96;;;34.40;25.75
74881;BME280;63427;49.654;6.596;2023-09-12T11:02:52;99290.12;;;34.31;25.54
74881;BME280;63427;49.654;6.596;2023-09-12T11:07:45;99286.65;;;35.77;23.16
74881;BME280;63427;49.654;6.596;2023-09-12T11:10:16;99284.38;;;35.65;21.76
74881;BME280;63427;49.654;6.596;2023-09-12T11:12:36;99285.93;;;35.90;23.52
74881;BME280;63427;49.654;6.596;2023-09-12T11:15:05;99279.74;;;36.44;23.56
74881;BME280;63427;49.654;6.596;2023-09-12T11:17:23;99280.05;;;36.62;23.15
74881;BME280;63427;49.654;6.596;2023-09-12T11:19:48;99276.76;;;36.84;22.42
74881;BME280;63427;49.654;6.596;2023-09-12T11:22:22;99276.94;;;36.97;21.62
74881;BME280;63427;49.654;6.596;2023-09-12T11:24:43;99275.00;;;37.15;22.54
74881;BME280;63427;49.654;6.596;2023-09-12T11:27:04;99280.10;;;37.86;20.79
74881;BME280;63427;49.654;6.596;2023-09-12T11:29:33;99280.02;;;38.01;21.90
74881;BME280;63427;49.654;6.596;2023-09-12T11:31:56;99281.59;;;38.79;20.10
74881;BME280;63427;49.654;6.596;2023-09-12T11:34:20;99280.15;;;38.73;20.90
74881;BME280;63427;49.654;6.596;2023-09-12T11:36:46;99277.76;;;38.52;19.64
74881;BME280;63427;49.654;6.596;2023-09-12T11:39:22;99275.68;;;38.81;19.43
74881;BME280;63427;49.654;6.596;2023-09-12T11:41:39;99276.15;;;39.57;19.31
74881;BME280;63427;49.654;6.596;2023-09-12T11:44:03;99279.47;;;39.52;18.73
74881;BME280;63427;49.654;6.596;2023-09-12T11:46:27;99278.70;;;39.83;18.56
74881;BME280;63427;49.654;6.596;2023-09-12T11:48:51;99276.68;;;40.12;18.36
74881;BME280;63427;49.654;6.596;2023-09-12T11:51:16;99277.64;;;40.41;18.30
74881;BME280;63427;49.654;6.596;2023-09-12T11:53:42;99276.79;;;40.99;18.58
74881;BME280;63427;49.654;6.596;2023-09-12T11:56:07;99275.84;;;40.68;16.91
74881;BME280;63427;49.654;6.596;2023-09-12T11:58:33;99275.59;;;40.86;16.49
74881;BME280;63427;49.654;6.596;2023-09-12T12:00:58;99274.26;;;40.99;16.57
74881;BME280;63427;49.654;6.596;2023-09-12T12:03:25;99275.03;;;41.24;16.60
74881;BME280;63427;49.654;6.596;2023-09-12T12:05:49;99273.39;;;41.36;16.97
74881;BME280;63427;49.654;6.596;2023-09-12T12:08:16;99271.49;;;41.65;16.25
74881;BME280;63427;49.654;6.596;2023-09-12T12:10:39;99270.66;;;41.94;15.47
74881;BME280;63427;49.654;6.596;2023-09-12T12:13:04;99272.09;;;41.92;15.18
74881;BME280;63427;49.654;6.596;2023-09-12T12:15:30;99268.81;;;41.96;15.05
74881;BME280;63427;49.654;6.596;2023-09-12T12:17:55;99262.12;;;41.98;15.92
74881;BME280;63427;49.654;6.596;2023-09-12T12:20:20;99260.65;;;41.80;15.32
74881;BME280;63427;49.654;6.596;2023-09-12T12:22:45;99260.31;;;41.97;15.99
74881;BME280;63427;49.654;6.596;2023-09-12T12:25:12;99256.31;;;41.67;15.78
74881;BME280;63427;49.654;6.596;2023-09-12T12:27:36;99254.89;;;41.12;16.42
74881;BME280;63427;49.654;6.596;2023-09-12T12:30:00;99254.11;;;41.07;17.34
74881;BME280;63427;49.654;6.596;2023-09-12T12:32:26;99249.12;;;40.16;16.45
74881;BME280;63427;49.654;6.596;2023-09-12T12:34:51;99250.04;;;40.37;16.76
74881;BME280;63427;49.654;6.596;2023-09-12T12:37:17;99244.51;;;40.24;16.94
74881;BME280;63427;49.654;6.596;2023-09-12T12:39:43;99245.29;;;39.94;18.48
74881;BME280;63427;49.654;6.596;2023-09-12T12:42:09;99242.06;;;40.30;17.95
74881;BME280;63427;49.654;6.596;2023-09-12T12:44:34;99239.67;;;40.51;18.64
74881;BME280;63427;49.654;6.596;2023-09-12T12:46:58;99238.90;;;40.77;17.25
74881;BME280;63427;49.654;6.596;2023-09-12T12:49:23;99241.56;;;40.96;16.61
74881;BME280;63427;49.654;6.596;2023-09-12T12:51:49;99236.66;;;40.89;17.40